Time;durP1;ratioP1;P1;durP2;ratioP2;P2;SDS_P1;SDS_P2;PMS_P1;PMS_P2;Temp;Humidity;BMP_temperature;BMP_pressure;BME280_temperature;BME280_humidity;BME280_pressure;Samples;Min_cycle;Max_cycle;Signal;HPM_P1;HPM_P2
2023/04/09 00:00:37;;;;;;;57.03;35.50;;;2.70;99.90;;;;;;2072608;28;20048;-70
2023/04/09 00:01:37;;;;;;;56.20;35.33;;;2.70;99.90;;;;;;2072846;28;20420;-70
2023/04/09 00:02:38;;;;;;;59.65;35.78;;;2.70;99.90;;;;;;2068609;28;20259;-70
2023/04/09 00:03:39;;;;;;;61.85;36.67;;;2.70;99.90;;;;;;2082185;28;20035;-70
2023/04/09 00:04:39;;;;;;;59.53;36.05;;;2.70;99.90;;;;;;2081904;28;20089;-69
2023/04/09 00:05:40;;;;;;;56.65;34.50;;;2.70;99.90;;;;;;2081925;28;20032;-70
2023/04/09 00:06:40;;;;;;;57.92;35.60;;;2.70;99.90;;;;;;2074052;28;20029;-70
2023/04/09 00:07:41;;;;;;;58.80;35.92;;;2.70;99.90;;;;;;2073906;28;20048;-70
2023/04/09 00:08:42;;;;;;;58.08;35.03;;;2.70;99.90;;;;;;2076723;28;20489;-69
2023/04/09 00:09:42;;;;;;;58.92;35.25;;;2.60;99.90;;;;;;2083765;28;20087;-70
2023/04/09 00:10:43;;;;;;;58.17;34.60;;;2.60;99.90;;;;;;2082677;28;20498;-70
2023/04/09 00:11:44;;;;;;;53.97;33.65;;;2.60;99.90;;;;;;2081213;28;20028;-70
2023/04/09 00:12:44;;;;;;;57.22;34.63;;;2.60;99.90;;;;;;2081069;28;20037;-70
2023/04/09 00:13:45;;;;;;;61.70;35.42;;;2.60;99.90;;;;;;2083103;28;20129;-70
2023/04/09 00:14:45;;;;;;;56.45;34.22;;;2.60;99.90;;;;;;2081915;28;20025;-70
2023/04/09 00:15:46;;;;;;;58.60;35.97;;;2.60;99.90;;;;;;2075145;28;20119;-71
2023/04/09 00:16:47;;;;;;;61.30;36.25;;;2.60;99.90;;;;;;2077291;28;20029;-72
2023/04/09 00:17:47;;;;;;;58.85;35.53;;;2.60;99.90;;;;;;2085489;28;20039;-72
2023/04/09 00:18:48;;;;;;;58.80;35.78;;;2.60;99.90;;;;;;2083405;28;20507;-72
2023/04/09 00:19:48;;;;;;;61.95;36.67;;;2.60;99.90;;;;;;2083161;28;20107;-72
2023/04/09 00:20:49;;;;;;;63.45;37.80;;;2.50;99.90;;;;;;2083269;28;20037;-72
2023/04/09 00:21:50;;;;;;;60.60;36.97;;;2.50;99.90;;;;;;2083452;28;20049;-72
2023/04/09 00:22:51;;;;;;;67.32;39.05;;;2.50;99.90;;;;;;2076433;28;20912;-72
2023/04/09 00:23:51;;;;;;;67.43;38.92;;;2.50;99.90;;;;;;2074263;28;20029;-72
2023/04/09 00:24:52;;;;;;;63.03;38.35;;;2.50;99.90;;;;;;2071867;28;20061;-72
2023/04/09 00:25:53;;;;;;;59.97;37.08;;;2.50;99.90;;;;;;2067628;28;20037;-70
2023/04/09 00:26:53;;;;;;;61.33;36.50;;;2.40;99.90;;;;;;2074541;28;20037;-72
2023/04/09 00:27:55;;;;;;;62.78;37.92;;;2.40;99.90;;;;;;2082864;28;20087;-70
2023/04/09 00:28:56;;;;;;;57.85;36.17;;;2.40;99.90;;;;;;2083378;28;20082;-70
2023/04/09 00:29:56;;;;;;;60.05;36.53;;;2.40;99.90;;;;;;2082528;28;20106;-70
2023/04/09 00:30:57;;;;;;;59.33;35.75;;;2.40;99.90;;;;;;2082735;28;20443;-70
2023/04/09 00:31:57;;;;;;;60.25;36.40;;;2.40;99.90;;;;;;2085148;28;20100;-71
2023/04/09 00:32:58;;;;;;;62.05;37.35;;;2.50;99.90;;;;;;2074175;28;20464;-71
2023/04/09 00:33:59;;;;;;;60.08;37.05;;;2.60;99.90;;;;;;2078351;28;20033;-71
2023/04/09 00:35:00;;;;;;;63.13;37.75;;;2.60;99.90;;;;;;2077096;28;20057;-71
2023/04/09 00:36:00;;;;;;;67.18;39.75;;;2.70;99.90;;;;;;2088058;28;20135;-71
2023/04/09 00:37:01;;;;;;;64.07;37.85;;;2.80;99.90;;;;;;2082333;28;20032;-72
2023/04/09 00:38:01;;;;;;;63.40;37.55;;;2.80;99.90;;;;;;2083434;28;20112;-71
2023/04/09 00:39:02;;;;;;;63.78;37.60;;;2.90;99.90;;;;;;2074300;28;20030;-71
2023/04/09 00:40:03;;;;;;;59.95;35.95;;;3.00;99.90;;;;;;2076165;28;20037;-71
2023/04/09 00:41:04;;;;;;;58.50;35.95;;;3.00;99.90;;;;;;2082997;28;20028;-70
2023/04/09 00:42:04;;;;;;;61.67;36.45;;;3.00;99.90;;;;;;2079872;28;20123;-71
2023/04/09 00:43:05;;;;;;;57.97;35.63;;;2.90;99.90;;;;;;2079921;28;20321;-71
2023/04/09 00:44:06;;;;;;;59.03;35.80;;;2.90;99.90;;;;;;2084812;28;20116;-71
2023/04/09 00:45:07;;;;;;;58.20;34.95;;;2.80;99.90;;;;;;2083100;28;20024;-70
2023/04/09 00:46:07;;;;;;;57.10;34.80;;;2.70;99.90;;;;;;2083005;28;20111;-71
2023/04/09 00:47:08;;;;;;;55.83;34.95;;;2.60;99.90;;;;;;2083144;28;20373;-71
2023/04/09 00:48:10;;;;;;;56.83;35.47;;;2.60;99.90;;;;;;2085021;28;20031;-71
2023/04/09 00:49:11;;;;;;;61.97;36.85;;;2.50;99.90;;;;;;2084839;28;20086;-70
2023/04/09 00:50:11;;;;;;;63.38;36.88;;;2.50;99.90;;;;;;2086936;28;20264;-70
2023/04/09 00:51:12;;;;;;;63.90;38.65;;;2.50;99.90;;;;;;2082493;28;20115;-71
2023/04/09 00:52:12;;;;;;;61.88;38.88;;;2.50;99.90;;;;;;2083098;28;20440;-70
2023/04/09 00:53:14;;;;;;;64.80;39.42;;;2.50;99.90;;;;;;2084829;28;20335;-71
2023/04/09 00:54:15;;;;;;;60.20;37.03;;;2.50;99.90;;;;;;2082114;28;20673;-70
2023/04/09 00:55:16;;;;;;;58.97;35.88;;;2.50;99.90;;;;;;2082350;28;20029;-71
2023/04/09 00:56:18;;;;;;;60.58;36.13;;;2.50;99.90;;;;;;2083154;28;20495;-71
2023/04/09 00:57:19;;;;;;;60.20;36.35;;;2.40;99.90;;;;;;2083934;28;20507;-71
2023/04/09 00:58:20;;;;;;;58.13;35.88;;;2.40;99.90;;;;;;2088380;28;20257;-71
2023/04/09 00:59:21;;;;;;;59.13;35.95;;;2.40;99.90;;;;;;2075910;28;20587;-71
2023/04/09 01:00:21;;;;;;;59.50;36.90;;;2.40;99.90;;;;;;2078183;28;20025;-71
2023/04/09 01:01:22;;;;;;;59.85;35.20;;;2.40;99.90;;;;;;2080834;28;20021;-70
2023/04/09 01:02:23;;;;;;;54.25;33.65;;;2.40;99.90;;;;;;2084917;28;20021;-70
2023/04/09 01:03:23;;;;;;;54.97;34.15;;;2.40;99.90;;;;;;2074247;28;20042;-70
2023/04/09 01:04:24;;;;;;;56.47;34.75;;;2.40;99.90;;;;;;2074053;28;20029;-70
2023/04/09 01:05:33;;;;;;;58.97;35.28;;;2.40;99.90;;;;;;2074405;28;20056;-71
2023/04/09 01:07:00;;;;;;;57.25;34.97;;;2.40;99.90;;;;;;2081152;28;20047;-70
2023/04/09 01:08:13;;;;;;;59.10;35.15;;;2.40;99.90;;;;;;2057034;28;20085;-70
2023/04/09 01:09:27;;;;;;;56.83;34.28;;;2.40;99.90;;;;;;2075703;28;20583;-70
2023/04/09 01:10:45;;;;;;;55.83;33.95;;;2.40;99.90;;;;;;2073689;28;20025;-70
2023/04/09 01:12:07;;;;;;;58.30;34.95;;;2.50;99.90;;;;;;2078191;28;20030;-70
2023/04/09 01:13:15;;;;;;;62.90;36.83;;;2.50;99.90;;;;;;2074143;28;20260;-69
2023/04/09 01:14:40;;;;;;;61.65;36.95;;;2.50;99.90;;;;;;2077245;28;20029;-70
2023/04/09 01:15:54;;;;;;;62.25;36.13;;;2.50;99.90;;;;;;2074147;28;20025;-70
2023/04/09 01:17:02;;;;;;;57.92;35.03;;;2.50;99.90;;;;;;2078548;28;20459;-70
2023/04/09 01:18:10;;;;;;;60.42;35.35;;;2.50;99.90;;;;;;2074376;28;20029;-70
2023/04/09 01:19:33;;;;;;;60.67;35.78;;;2.60;99.90;;;;;;2068469;28;20563;-70
2023/04/09 01:20:40;;;;;;;60.00;35.25;;;2.60;99.90;;;;;;2066856;28;20025;-69
2023/04/09 01:21:41;;;;;;;57.22;34.95;;;2.60;99.90;;;;;;2074988;28;20041;-70
2023/04/09 01:22:58;;;;;;;58.42;36.05;;;2.60;99.90;;;;;;2074480;28;20041;-70
2023/04/09 01:24:17;;;;;;;58.17;34.88;;;2.60;99.90;;;;;;2065581;28;20026;-70
2023/04/09 01:25:44;;;;;;;55.65;34.05;;;2.60;99.90;;;;;;2072861;28;20026;-76
2023/04/09 01:26:57;;;;;;;57.85;34.22;;;2.60;99.90;;;;;;2079734;28;20347;-76
2023/04/09 01:28:37;;;;;;;59.33;34.88;;;2.60;99.90;;;;;;2071248;28;20075;-76
2023/04/09 01:29:46;;;;;;;55.92;33.88;;;2.60;99.90;;;;;;2073315;28;20032;-76
2023/04/09 01:30:56;;;;;;;57.00;34.53;;;2.60;99.90;;;;;;2073917;28;20045;-76
2023/04/09 01:31:58;;;;;;;57.85;35.28;;;2.60;99.90;;;;;;2070637;28;20568;-75
2023/04/09 01:32:59;;;;;;;56.58;34.10;;;2.60;99.90;;;;;;2077234;28;20037;-74
2023/04/09 01:34:01;;;;;;;56.15;34.17;;;2.70;99.90;;;;;;2075893;28;20465;-74
2023/04/09 01:35:04;;;;;;;56.75;35.08;;;2.60;99.90;;;;;;2073582;28;20040;-75
2023/04/09 01:36:06;;;;;;;58.80;35.22;;;2.70;99.90;;;;;;2074083;28;20037;-75
2023/04/09 01:37:07;;;;;;;62.15;36.40;;;2.70;99.90;;;;;;2083025;28;20029;-75
2023/04/09 01:38:10;;;;;;;57.97;35.92;;;2.70;99.90;;;;;;2071964;28;20032;-75
2023/04/09 01:39:10;;;;;;;57.00;35.42;;;2.70;99.90;;;;;;2074299;28;20037;-75
2023/04/09 01:40:11;;;;;;;58.53;35.67;;;2.70;99.90;;;;;;2073767;28;20489;-76
2023/04/09 01:41:16;;;;;;;58.40;35.00;;;2.70;99.90;;;;;;2073812;28;20045;-76
2023/04/09 01:42:18;;;;;;;53.38;34.05;;;2.70;99.90;;;;;;2074370;28;20471;-76
2023/04/09 01:43:19;;;;;;;57.50;34.80;;;2.70;99.90;;;;;;2071346;28;20028;-76
2023/04/09 01:44:22;;;;;;;56.75;35.30;;;2.60;99.90;;;;;;2081873;28;20104;-76
2023/04/09 01:45:23;;;;;;;56.92;34.92;;;2.60;99.90;;;;;;2073880;28;20141;-77
2023/04/09 01:46:25;;;;;;;54.05;33.42;;;2.60;99.90;;;;;;2073731;28;20030;-76
2023/04/09 01:47:26;;;;;;;55.13;34.05;;;2.60;99.90;;;;;;2073709;28;20029;-76
2023/04/09 01:48:28;;;;;;;56.95;34.72;;;2.50;99.90;;;;;;2073790;28;20463;-76
2023/04/09 01:49:29;;;;;;;57.70;35.22;;;2.50;99.90;;;;;;2072122;28;20396;-76
2023/04/09 01:50:31;;;;;;;58.33;35.28;;;2.50;99.90;;;;;;2073709;28;20534;-76
2023/04/09 01:51:32;;;;;;;55.97;34.75;;;2.50;99.90;;;;;;2065177;28;20030;-76
2023/04/09 01:52:34;;;;;;;56.78;34.80;;;2.50;99.90;;;;;;2073566;28;20026;-76
2023/04/09 01:53:35;;;;;;;55.55;34.97;;;2.40;99.90;;;;;;2079856;28;20037;-76
2023/04/09 01:54:35;;;;;;;57.00;35.45;;;2.40;99.90;;;;;;2081797;28;20335;-76
2023/04/09 01:55:36;;;;;;;60.20;35.97;;;2.40;99.90;;;;;;2081945;28;20035;-76
2023/04/09 01:56:44;;;;;;;59.20;36.10;;;2.40;99.90;;;;;;2082585;28;20479;-76
2023/04/09 01:57:45;;;;;;;58.38;35.55;;;2.40;99.90;;;;;;2081740;28;20112;-75
2023/04/09 01:58:45;;;;;;;59.13;36.42;;;2.30;99.90;;;;;;2073454;28;20018;-75
2023/04/09 01:59:46;;;;;;;58.65;35.17;;;2.40;99.90;;;;;;2075514;28;20084;-76
2023/04/09 02:00:48;;;;;;;59.35;35.58;;;2.30;99.90;;;;;;2081882;28;20052;-76
2023/04/09 02:01:53;;;;;;;59.10;36.30;;;2.30;99.90;;;;;;2086654;28;20024;-76
2023/04/09 02:03:03;;;;;;;58.58;36.20;;;2.30;99.90;;;;;;2085764;28;20545;-76
2023/04/09 02:04:12;;;;;;;58.40;35.92;;;2.30;99.90;;;;;;2085485;28;20423;-76
2023/04/09 02:05:17;;;;;;;57.85;36.03;;;2.30;99.90;;;;;;2082720;28;20103;-76
2023/04/09 02:06:31;;;;;;;59.05;35.80;;;2.30;99.90;;;;;;2082481;28;20104;-77
2023/04/09 02:07:41;;;;;;;57.88;35.00;;;2.30;99.90;;;;;;2081966;28;20579;-76
2023/04/09 02:08:46;;;;;;;61.95;36.35;;;2.30;99.90;;;;;;2087638;28;20047;-76
2023/04/09 02:09:48;;;;;;;56.75;34.65;;;2.30;99.90;;;;;;2094315;28;20028;-75
2023/04/09 02:10:54;;;;;;;60.10;36.15;;;2.20;99.90;;;;;;2081384;28;20051;-75
2023/04/09 02:11:58;;;;;;;58.58;35.50;;;2.30;99.90;;;;;;2081814;28;20052;-75
2023/04/09 02:13:01;;;;;;;58.38;34.90;;;2.20;99.90;;;;;;2090489;28;20549;-76
2023/04/09 02:14:03;;;;;;;58.13;35.83;;;2.20;99.90;;;;;;2079825;28;20507;-75
2023/04/09 02:15:06;;;;;;;59.22;34.97;;;2.20;99.90;;;;;;2079596;28;20029;-75
2023/04/09 02:16:09;;;;;;;56.72;34.03;;;2.20;99.90;;;;;;2081765;28;20107;-76
2023/04/09 02:17:11;;;;;;;55.38;33.75;;;2.30;99.90;;;;;;2081765;28;20024;-76
2023/04/09 02:18:29;;;;;;;57.60;34.88;;;2.30;99.90;;;;;;2082218;28;20447;-77
2023/04/09 02:19:40;;;;;;;59.88;35.28;;;2.30;99.90;;;;;;2082141;28;20045;-77
2023/04/09 02:20:41;;;;;;;60.58;35.92;;;2.30;99.90;;;;;;2082363;28;20453;-75
2023/04/09 02:21:43;;;;;;;58.08;35.47;;;2.20;99.90;;;;;;2082606;28;20488;-77
2023/04/09 02:22:47;;;;;;;63.55;37.92;;;2.20;99.90;;;;;;2082537;28;20507;-76
2023/04/09 02:23:48;;;;;;;60.00;36.13;;;2.20;99.90;;;;;;2082417;28;20036;-77
2023/04/09 02:24:48;;;;;;;59.88;36.08;;;2.20;99.90;;;;;;2084371;28;20025;-77
2023/04/09 02:25:49;;;;;;;59.28;36.30;;;2.20;99.90;;;;;;2086993;28;20524;-77
2023/04/09 02:26:51;;;;;;;56.03;35.30;;;2.20;99.90;;;;;;2084991;28;20434;-77
2023/04/09 02:27:51;;;;;;;58.97;36.22;;;2.20;99.90;;;;;;2073590;28;20022;-76
2023/04/09 02:28:52;;;;;;;60.00;36.53;;;2.30;99.90;;;;;;2079606;28;20026;-77
2023/04/09 02:29:52;;;;;;;60.63;36.83;;;2.20;99.90;;;;;;2081674;28;20029;-77
2023/04/09 02:30:53;;;;;;;59.63;36.17;;;2.20;99.90;;;;;;2077467;28;20022;-76
2023/04/09 02:31:54;;;;;;;62.47;37.78;;;2.30;99.90;;;;;;2073369;28;20517;-76
2023/04/09 02:32:55;;;;;;;64.53;39.40;;;2.30;99.90;;;;;;2073329;28;20646;-76
2023/04/09 02:33:56;;;;;;;62.28;38.33;;;2.30;99.90;;;;;;2083440;28;20186;-76
2023/04/09 02:34:56;;;;;;;61.55;38.20;;;2.30;99.90;;;;;;2081777;28;20128;-77
2023/04/09 02:35:57;;;;;;;63.55;39.85;;;2.30;99.90;;;;;;2083419;28;20272;-76
2023/04/09 02:36:57;;;;;;;62.35;38.53;;;2.30;99.90;;;;;;2084561;28;20029;-76
2023/04/09 02:37:58;;;;;;;62.72;39.05;;;2.20;99.90;;;;;;2083316;28;20084;-76
2023/04/09 02:38:59;;;;;;;62.88;39.53;;;2.20;99.90;;;;;;2081603;28;20024;-76
2023/04/09 02:39:59;;;;;;;61.80;38.55;;;2.20;99.90;;;;;;2082248;28;20075;-76
2023/04/09 02:41:00;;;;;;;59.85;37.00;;;2.20;99.90;;;;;;2080356;28;20032;-76
2023/04/09 02:42:01;;;;;;;62.72;39.25;;;2.20;99.90;;;;;;2085296;28;20027;-74
2023/04/09 02:43:01;;;;;;;64.00;38.25;;;2.20;99.90;;;;;;2079639;28;20490;-77
2023/04/09 02:44:02;;;;;;;59.75;37.03;;;2.20;99.90;;;;;;2085905;28;20123;-77
2023/04/09 02:45:02;;;;;;;60.85;36.17;;;2.20;99.90;;;;;;2085341;28;20024;-77
2023/04/09 02:46:06;;;;;;;59.38;36.00;;;2.20;99.90;;;;;;2082150;28;20025;-77
2023/04/09 02:47:08;;;;;;;58.28;35.63;;;2.20;99.90;;;;;;2071153;28;20029;-77
2023/04/09 02:48:11;;;;;;;55.83;34.13;;;2.20;99.90;;;;;;2073778;28;20037;-77
2023/04/09 02:49:11;;;;;;;58.65;35.97;;;2.20;99.90;;;;;;2081730;28;20504;-77
2023/04/09 02:50:12;;;;;;;61.67;36.08;;;2.20;99.90;;;;;;2081422;28;20574;-77
2023/04/09 02:51:19;;;;;;;60.15;36.88;;;2.20;99.90;;;;;;2074143;28;20532;-77
2023/04/09 02:52:23;;;;;;;60.92;37.60;;;2.20;99.90;;;;;;2082792;28;20075;-77
2023/04/09 02:53:24;;;;;;;60.80;36.75;;;2.20;99.90;;;;;;2083566;28;20033;-76
2023/04/09 02:54:24;;;;;;;58.65;36.08;;;2.20;99.90;;;;;;2081594;28;20041;-79
2023/04/09 02:55:25;;;;;;;61.90;37.47;;;2.20;99.90;;;;;;2080078;28;20021;-76
2023/04/09 02:56:26;;;;;;;60.22;36.28;;;2.20;99.90;;;;;;2081336;28;20040;-75
2023/04/09 02:57:27;;;;;;;58.83;35.30;;;2.20;99.90;;;;;;2083320;28;20035;-76
2023/04/09 02:58:27;;;;;;;63.47;37.55;;;2.20;99.90;;;;;;2089675;28;20096;-76
2023/04/09 02:59:28;;;;;;;61.47;37.15;;;2.10;99.90;;;;;;2082169;28;20024;-75
2023/04/09 03:00:28;;;;;;;60.53;37.10;;;2.10;99.90;;;;;;2081131;28;20025;-75
2023/04/09 03:01:30;;;;;;;63.95;38.20;;;2.10;99.90;;;;;;2065163;28;20611;-75
2023/04/09 03:02:30;;;;;;;63.20;37.35;;;2.00;99.90;;;;;;2064937;28;20077;-75
2023/04/09 03:03:31;;;;;;;60.97;36.05;;;2.00;99.90;;;;;;2079398;28;20220;-75
2023/04/09 03:04:32;;;;;;;59.53;36.70;;;2.00;99.90;;;;;;2081964;28;20033;-75
2023/04/09 03:05:32;;;;;;;61.45;36.40;;;2.00;99.90;;;;;;2084827;28;20051;-75
2023/04/09 03:06:33;;;;;;;60.88;37.08;;;2.00;99.90;;;;;;2072996;28;20037;-76
2023/04/09 03:07:33;;;;;;;61.28;36.33;;;2.00;99.90;;;;;;2083045;28;20064;-76
2023/04/09 03:08:34;;;;;;;62.05;37.53;;;2.00;99.90;;;;;;2087307;28;20641;-74
2023/04/09 03:09:35;;;;;;;61.00;36.42;;;2.00;99.90;;;;;;2087408;28;20174;-76
2023/04/09 03:10:36;;;;;;;62.17;37.45;;;1.90;99.90;;;;;;2081643;28;20029;-75
2023/04/09 03:11:36;;;;;;;63.35;37.10;;;1.90;99.90;;;;;;2082138;28;20132;-76
2023/04/09 03:12:37;;;;;;;64.10;37.80;;;2.00;99.90;;;;;;2075271;28;20532;-75
2023/04/09 03:13:37;;;;;;;65.18;38.38;;;2.00;99.90;;;;;;2083236;28;20089;-75
2023/04/09 03:14:38;;;;;;;64.75;38.17;;;2.00;99.90;;;;;;2093076;28;20028;-76
2023/04/09 03:15:39;;;;;;;61.67;36.97;;;1.90;99.90;;;;;;2083934;28;20056;-77
2023/04/09 03:16:40;;;;;;;61.38;36.80;;;1.90;99.90;;;;;;2086376;28;20033;-71
2023/04/09 03:17:40;;;;;;;65.45;37.72;;;1.90;99.90;;;;;;2079357;28;20469;-71
2023/04/09 03:18:41;;;;;;;61.80;37.03;;;1.90;99.90;;;;;;2081227;28;20033;-71
2023/04/09 03:19:42;;;;;;;63.42;36.78;;;1.90;99.90;;;;;;2081371;28;20123;-72
2023/04/09 03:20:42;;;;;;;61.78;36.53;;;1.90;99.90;;;;;;2073289;28;20496;-71
2023/04/09 03:21:48;;;;;;;60.15;36.13;;;1.90;99.90;;;;;;2075445;28;20203;-71
2023/04/09 03:22:54;;;;;;;62.25;36.72;;;1.90;99.90;;;;;;2083756;28;20637;-71
2023/04/09 03:24:09;;;;;;;63.08;36.58;;;1.90;99.90;;;;;;2091537;28;20113;-72
2023/04/09 03:25:10;;;;;;;64.50;37.65;;;1.90;99.90;;;;;;2081528;28;20521;-72
2023/04/09 03:26:11;;;;;;;60.92;36.92;;;2.00;99.90;;;;;;2081513;28;20078;-71
2023/04/09 03:27:20;;;;;;;62.80;36.70;;;2.00;99.90;;;;;;2081368;28;20078;-71
2023/04/09 03:28:25;;;;;;;61.00;36.55;;;2.00;99.90;;;;;;2081192;28;20087;-71
2023/04/09 03:29:27;;;;;;;61.17;36.08;;;2.00;99.90;;;;;;2085896;28;20029;-72
2023/04/09 03:30:29;;;;;;;58.85;34.90;;;2.00;99.90;;;;;;2078351;28;20025;-71
2023/04/09 03:31:31;;;;;;;59.92;35.88;;;2.10;99.90;;;;;;2078682;28;20028;-71
2023/04/09 03:32:31;;;;;;;57.22;35.25;;;2.10;99.90;;;;;;2081198;28;20603;-71
2023/04/09 03:33:32;;;;;;;58.08;35.05;;;2.10;99.90;;;;;;2074531;28;20033;-72
2023/04/09 03:34:33;;;;;;;60.78;36.88;;;2.10;99.90;;;;;;2078741;28;20029;-71
2023/04/09 03:35:34;;;;;;;59.35;36.25;;;2.20;99.90;;;;;;2081020;28;20029;-71
2023/04/09 03:36:35;;;;;;;59.47;36.50;;;2.20;99.90;;;;;;2085290;28;20076;-71
2023/04/09 03:37:37;;;;;;;57.13;35.22;;;2.20;99.90;;;;;;2088176;28;20659;-71
2023/04/09 03:38:38;;;;;;;55.88;35.97;;;2.20;99.90;;;;;;2089315;28;20059;-71
2023/04/09 03:39:44;;;;;;;59.85;36.58;;;2.30;99.90;;;;;;2080837;28;20499;-71
2023/04/09 03:40:45;;;;;;;58.47;36.33;;;2.30;99.90;;;;;;2083077;28;20025;-71
2023/04/09 03:41:46;;;;;;;60.22;37.03;;;2.30;99.90;;;;;;2089471;28;20115;-71
2023/04/09 03:42:49;;;;;;;60.33;37.55;;;2.30;99.90;;;;;;2081221;28;20025;-71
2023/04/09 03:43:51;;;;;;;57.85;36.58;;;2.30;99.90;;;;;;2073044;28;20402;-71
2023/04/09 03:44:56;;;;;;;57.22;35.88;;;2.30;99.90;;;;;;2073014;28;20041;-72
2023/04/09 03:46:12;;;;;;;58.08;36.20;;;2.30;99.90;;;;;;2070520;28;20597;-72
2023/04/09 03:47:13;;;;;;;56.33;35.67;;;2.30;99.90;;;;;;2080132;28;20032;-71
2023/04/09 03:48:13;;;;;;;58.97;36.40;;;2.30;99.90;;;;;;2081505;28;20040;-70
2023/04/09 03:49:14;;;;;;;59.30;36.60;;;2.30;99.90;;;;;;2074905;28;20033;-71
2023/04/09 03:50:18;;;;;;;58.67;36.58;;;2.40;99.90;;;;;;2072897;28;20413;-71
2023/04/09 03:51:23;;;;;;;58.95;36.22;;;2.40;99.90;;;;;;2081400;28;20308;-72
2023/04/09 03:52:29;;;;;;;58.15;36.67;;;2.40;99.90;;;;;;2074448;28;20206;-71
2023/04/09 03:53:35;;;;;;;57.83;35.83;;;2.40;99.90;;;;;;2080886;28;20045;-71
2023/04/09 03:54:39;;;;;;;56.78;35.53;;;2.40;99.90;;;;;;2075797;28;20033;-71
2023/04/09 03:55:46;;;;;;;56.38;35.30;;;2.40;99.90;;;;;;2082786;28;20124;-72
2023/04/09 03:56:55;;;;;;;58.22;35.97;;;2.40;99.90;;;;;;2082688;28;20025;-71
2023/04/09 03:57:58;;;;;;;58.35;35.67;;;2.40;99.90;;;;;;2075555;28;20088;-72
2023/04/09 03:59:02;;;;;;;56.42;34.90;;;2.40;99.90;;;;;;2083176;28;20017;-71
2023/04/09 04:00:11;;;;;;;59.22;36.45;;;2.40;99.90;;;;;;2082542;28;20021;-71
2023/04/09 04:01:24;;;;;;;57.78;35.30;;;2.40;99.90;;;;;;2082859;28;20044;-72
2023/04/09 04:02:32;;;;;;;57.70;34.95;;;2.40;99.90;;;;;;2082663;28;20152;-70
2023/04/09 04:03:36;;;;;;;56.75;34.65;;;2.50;99.90;;;;;;2077293;28;20036;-71
2023/04/09 04:04:49;;;;;;;56.17;35.33;;;2.50;99.90;;;;;;2072954;28;20092;-71
2023/04/09 04:05:50;;;;;;;63.28;37.85;;;2.50;99.90;;;;;;2074680;28;20120;-70
2023/04/09 04:06:51;;;;;;;58.92;35.58;;;2.50;99.90;;;;;;2076277;28;20071;-72
2023/04/09 04:08:14;;;;;;;57.10;34.03;;;2.50;99.90;;;;;;2070438;28;20041;-70
2023/04/09 04:09:15;;;;;;;57.08;34.97;;;2.40;99.90;;;;;;2058764;28;20583;-69
2023/04/09 04:10:27;;;;;;;55.30;33.30;;;2.50;99.90;;;;;;2059309;28;20449;-71
2023/04/09 04:11:28;;;;;;;60.10;36.00;;;2.50;99.90;;;;;;2067488;28;20033;-70
2023/04/09 04:12:30;;;;;;;57.80;34.70;;;2.50;99.90;;;;;;2071668;28;20021;-70
2023/04/09 04:13:44;;;;;;;55.15;33.60;;;2.50;99.90;;;;;;2076413;28;20037;-70
2023/04/09 04:14:45;;;;;;;54.03;33.45;;;2.50;99.90;;;;;;2074515;28;20314;-71
2023/04/09 04:16:06;;;;;;;56.95;34.95;;;2.50;99.90;;;;;;2076026;28;20087;-70
2023/04/09 04:17:07;;;;;;;58.00;35.03;;;2.50;99.90;;;;;;2073861;28;20109;-70
2023/04/09 04:18:09;;;;;;;58.47;35.45;;;2.50;99.90;;;;;;2074208;28;20033;-72
2023/04/09 04:19:17;;;;;;;56.28;33.67;;;2.50;99.90;;;;;;2073285;28;20025;-71
2023/04/09 04:20:21;;;;;;;55.22;34.28;;;2.50;99.90;;;;;;2063884;28;20459;-70
2023/04/09 04:21:29;;;;;;;57.67;34.90;;;2.50;99.90;;;;;;2059250;28;20062;-70
2023/04/09 04:22:34;;;;;;;55.15;34.50;;;2.50;99.90;;;;;;2070890;28;20060;-71
2023/04/09 04:23:38;;;;;;;55.13;33.63;;;2.50;99.90;;;;;;2074201;28;20442;-70
2023/04/09 04:24:54;;;;;;;58.40;35.55;;;2.50;99.90;;;;;;2073122;28;20038;-70
2023/04/09 04:25:56;;;;;;;58.97;35.13;;;2.60;99.90;;;;;;2074399;28;20120;-71
2023/04/09 04:27:03;;;;;;;57.42;35.10;;;2.60;99.90;;;;;;2066748;28;20014;-70
2023/04/09 04:28:08;;;;;;;59.83;35.83;;;2.60;99.90;;;;;;2072469;28;20422;-71
2023/04/09 04:29:14;;;;;;;62.40;36.85;;;2.60;99.90;;;;;;2068292;28;20459;-71
2023/04/09 04:30:24;;;;;;;61.08;35.97;;;2.60;99.90;;;;;;2069643;28;20026;-71
2023/04/09 04:31:45;;;;;;;56.78;34.90;;;2.60;99.90;;;;;;2074230;28;20038;-71
2023/04/09 04:32:47;;;;;;;58.67;34.78;;;2.60;99.90;;;;;;2074155;28;20033;-71
2023/04/09 04:33:48;;;;;;;60.38;35.80;;;2.60;99.90;;;;;;2074438;28;20100;-71
2023/04/09 04:34:49;;;;;;;58.88;35.95;;;2.60;99.90;;;;;;2076127;28;20033;-71
2023/04/09 04:36:08;;;;;;;60.42;35.88;;;2.60;99.90;;;;;;2079910;28;20104;-71
2023/04/09 04:37:13;;;;;;;56.33;34.38;;;2.60;99.90;;;;;;2072755;28;20025;-70
2023/04/09 04:38:15;;;;;;;57.20;34.03;;;2.50;99.90;;;;;;2070327;28;20021;-72
2023/04/09 04:39:15;;;;;;;55.70;35.35;;;2.60;99.90;;;;;;2078323;28;20241;-71
2023/04/09 04:40:24;;;;;;;52.85;32.53;;;2.60;99.90;;;;;;2070657;28;20027;-70
2023/04/09 04:41:31;;;;;;;56.60;33.65;;;2.60;99.90;;;;;;2066794;28;20137;-71
2023/04/09 04:42:45;;;;;;;56.50;34.47;;;2.60;99.90;;;;;;2070722;28;20556;-71
2023/04/09 04:43:49;;;;;;;53.65;33.53;;;2.60;99.90;;;;;;2070106;28;20061;-72
2023/04/09 04:44:54;;;;;;;54.40;33.88;;;2.60;99.90;;;;;;2074123;28;20021;-72
2023/04/09 04:46:27;;;;;;;53.60;32.45;;;2.60;99.90;;;;;;2072030;28;20057;-72
2023/04/09 04:47:27;;;;;;;51.67;32.05;;;2.60;99.90;;;;;;2062381;28;20411;-72
2023/04/09 04:48:28;;;;;;;51.63;33.10;;;2.70;99.90;;;;;;2054131;28;20053;-72
2023/04/09 04:49:30;;;;;;;52.72;32.42;;;2.70;99.90;;;;;;2058161;28;20057;-72
2023/04/09 04:50:31;;;;;;;52.97;33.22;;;2.70;99.90;;;;;;2061950;28;20375;-71
2023/04/09 04:51:36;;;;;;;53.70;33.25;;;2.70;99.90;;;;;;2069557;28;20021;-71
2023/04/09 04:52:42;;;;;;;54.80;33.75;;;2.70;99.90;;;;;;2074096;28;20120;-72
2023/04/09 04:53:43;;;;;;;55.58;34.55;;;2.70;99.90;;;;;;2076080;28;20404;-72
2023/04/09 04:54:46;;;;;;;54.88;33.22;;;2.70;99.90;;;;;;2080358;28;20116;-72
2023/04/09 04:55:52;;;;;;;55.08;33.80;;;2.80;99.90;;;;;;2065346;28;20259;-72
2023/04/09 04:56:57;;;;;;;52.45;32.95;;;2.80;99.90;;;;;;2066521;28;20278;-72
2023/04/09 04:58:06;;;;;;;52.30;32.85;;;2.90;99.90;;;;;;2073962;28;20036;-72
2023/04/09 04:59:16;;;;;;;52.00;32.55;;;2.90;99.90;;;;;;2074140;28;20021;-72
2023/04/09 05:00:28;;;;;;;53.40;33.08;;;2.90;99.90;;;;;;2074148;28;20107;-73
2023/04/09 05:01:33;;;;;;;53.05;33.22;;;2.90;99.90;;;;;;2073757;28;20025;-71
2023/04/09 05:02:35;;;;;;;54.53;33.28;;;2.90;99.90;;;;;;2073845;28;20093;-71
2023/04/09 05:03:51;;;;;;;52.75;32.03;;;2.90;99.90;;;;;;2077264;28;20021;-71
2023/04/09 05:05:11;;;;;;;55.33;33.65;;;2.90;99.90;;;;;;2067720;28;20060;-71
2023/04/09 05:06:18;;;;;;;58.00;33.85;;;2.90;99.90;;;;;;2063283;28;20164;-70
2023/04/09 05:07:19;;;;;;;56.88;34.38;;;2.90;99.90;;;;;;2057855;28;20442;-70
2023/04/09 05:08:27;;;;;;;54.10;33.60;;;2.90;99.90;;;;;;2067235;28;20140;-68
2023/04/09 05:09:29;;;;;;;53.47;33.72;;;3.00;99.90;;;;;;2081954;28;20543;-70
2023/04/09 05:10:40;;;;;;;54.45;34.05;;;3.00;99.90;;;;;;2083726;28;20486;-71
2023/04/09 05:11:41;;;;;;;53.83;34.55;;;3.00;99.90;;;;;;2092378;28;20036;-70
2023/04/09 05:12:48;;;;;;;51.60;33.30;;;3.00;99.90;;;;;;2088563;28;20463;-70
2023/04/09 05:13:58;;;;;;;;;;;3.10;99.90;;;;;;2082565;28;20147;-70
2023/04/09 05:14:59;;;;;;;55.30;33.58;;;3.10;99.90;;;;;;2075897;28;20415;-70
2023/04/09 05:16:00;;;;;;;58.50;35.67;;;3.10;99.90;;;;;;2081893;28;20086;-71
2023/04/09 05:17:01;;;;;;;55.33;34.47;;;3.20;99.90;;;;;;2073931;28;20033;-70
2023/04/09 05:18:12;;;;;;;53.50;33.28;;;3.20;99.90;;;;;;2075191;28;20065;-71
2023/04/09 05:19:13;;;;;;;50.92;31.52;;;3.40;99.90;;;;;;2082074;28;20024;-73
2023/04/09 05:20:14;;;;;;;53.10;33.17;;;3.50;99.90;;;;;;2084689;28;20576;-71
2023/04/09 05:21:26;;;;;;;52.50;33.30;;;3.60;99.90;;;;;;2084131;28;20099;-71
2023/04/09 05:22:29;;;;;;;54.15;33.53;;;3.70;99.90;;;;;;2071330;28;20033;-71
2023/04/09 05:23:30;;;;;;;54.13;33.85;;;3.80;99.90;;;;;;2073779;28;20109;-71
2023/04/09 05:24:31;;;;;;;52.00;32.47;;;3.90;99.90;;;;;;2081987;28;20021;-72
2023/04/09 05:25:31;;;;;;;47.95;31.13;;;4.00;99.90;;;;;;2082184;28;20041;-71
2023/04/09 05:26:34;;;;;;;52.25;32.92;;;4.10;99.90;;;;;;2065706;28;20018;-70
2023/04/09 05:27:36;;;;;;;52.65;32.50;;;4.30;99.90;;;;;;2068078;28;20065;-71
2023/04/09 05:28:36;;;;;;;51.30;32.50;;;4.40;99.90;;;;;;2070405;28;20030;-71
2023/04/09 05:29:44;;;;;;;52.42;32.67;;;4.50;99.90;;;;;;2071804;28;20416;-71